Time;durP1;ratioP1;P1;durP2;ratioP2;P2;SDS_P1;SDS_P2;PMS_P1;PMS_P2;Temp;Humidity;BMP_temperature;BMP_pressure;BME280_temperature;BME280_humidity;BME280_pressure;Samples;Min_cycle;Max_cycle;Signal;HPM_P1;HPM_P2
2023/11/05 00:01:07;;;;;;;125.97;28.60;;;7.80;99.90;;;;;;4126946;28;20050;-60
2023/11/05 00:05:19;;;;;;;321.43;35.27;;;7.80;99.90;;;;;;4121660;23;20079;-62
2023/11/05 00:07:20;;;;;;;83.80;25.83;;;7.80;99.90;;;;;;4111454;28;20042;-63
2023/11/05 00:09:21;;;;;;;295.93;32.60;;;7.80;99.90;;;;;;4113595;28;20105;-62
2023/11/05 00:11:22;;;;;;;195.70;28.83;;;7.90;99.90;;;;;;4111281;28;20097;-62
2023/11/05 00:13:23;;;;;;;115.80;26.17;;;7.80;99.90;;;;;;4113804;28;20034;-61
2023/11/05 00:15:26;;;;;;;327.73;33.40;;;7.80;99.90;;;;;;4113062;28;20026;-62
2023/11/05 00:17:27;;;;;;;323.50;36.30;;;7.80;99.90;;;;;;4113584;28;20093;-63
2023/11/05 00:19:28;;;;;;;168.37;30.23;;;7.80;99.90;;;;;;4126626;28;20031;-61
2023/11/05 00:21:29;;;;;;;195.93;29.93;;;7.80;99.90;;;;;;4121723;28;20553;-61
2023/11/05 00:23:30;;;;;;;194.03;27.27;;;7.80;99.90;;;;;;4113956;28;20077;-63
2023/11/05 00:25:31;;;;;;;273.47;31.40;;;7.80;99.90;;;;;;4128114;28;20081;-62
2023/11/05 00:27:32;;;;;;;376.67;36.63;;;7.80;99.90;;;;;;4126966;28;20090;-62
2023/11/05 00:29:33;;;;;;;200.27;26.37;;;7.80;99.90;;;;;;4127524;28;20046;-63
2023/11/05 00:31:35;;;;;;;237.07;32.47;;;7.80;99.90;;;;;;4128520;28;20054;-63
2023/11/05 00:33:36;;;;;;;209.60;33.43;;;7.70;99.90;;;;;;4126598;28;20085;-64
2023/11/05 00:35:37;;;;;;;156.80;30.17;;;7.70;99.90;;;;;;4128494;28;20073;-62
2023/11/05 00:37:38;;;;;;;164.77;27.83;;;7.60;99.90;;;;;;4125246;28;20101;-63
2023/11/05 00:39:40;;;;;;;150.90;31.43;;;7.60;99.90;;;;;;4118378;28;20151;-62
2023/11/05 00:41:41;;;;;;;132.13;32.87;;;7.50;99.90;;;;;;4125835;28;20038;-62
2023/11/05 00:43:42;;;;;;;118.57;27.57;;;7.50;99.90;;;;;;4128464;28;20101;-61
2023/11/05 00:45:43;;;;;;;86.13;20.30;;;7.50;99.90;;;;;;4125432;28;20038;-61
2023/11/05 00:47:45;;;;;;;150.00;24.17;;;7.50;99.90;;;;;;4127286;28;20038;-63
2023/11/05 00:49:46;;;;;;;95.77;20.20;;;7.40;99.90;;;;;;4122101;28;20054;-59
2023/11/05 00:51:47;;;;;;;90.33;21.00;;;7.40;99.90;;;;;;4108604;28;20027;-62
2023/11/05 00:53:48;;;;;;;122.80;19.70;;;7.40;99.90;;;;;;4097167;28;20043;-62
2023/11/05 00:55:49;;;;;;;80.87;18.17;;;7.30;99.90;;;;;;4111464;28;20056;-63
2023/11/05 00:57:51;;;;;;;55.77;16.57;;;7.20;99.90;;;;;;4111759;28;20773;-62
2023/11/05 00:59:52;;;;;;;120.53;18.83;;;7.10;99.90;;;;;;4111603;28;20537;-61
2023/11/05 01:01:53;;;;;;;99.87;19.00;;;7.10;99.90;;;;;;4111790;28;20063;-61
2023/11/05 01:03:55;;;;;;;79.13;17.20;;;7.00;99.90;;;;;;4110521;28;20050;-63
2023/11/05 01:05:56;;;;;;;53.53;16.90;;;7.00;99.90;;;;;;4112505;28;20070;-65
2023/11/05 01:07:57;;;;;;;44.43;15.70;;;7.00;99.90;;;;;;4111637;28;20097;-62
2023/11/05 01:09:58;;;;;;;45.60;15.60;;;7.00;99.90;;;;;;4112127;28;20042;-62
2023/11/05 01:12:00;;;;;;;98.97;19.17;;;7.10;99.90;;;;;;4110669;28;20047;-61
2023/11/05 01:14:01;;;;;;;41.63;15.63;;;7.20;99.90;;;;;;4124048;28;20054;-62
2023/11/05 01:16:02;;;;;;;165.47;23.70;;;7.10;99.90;;;;;;4125563;28;20045;-62
2023/11/05 01:18:03;;;;;;;158.00;24.57;;;7.20;99.90;;;;;;4127993;28;20070;-62
2023/11/05 01:20:08;;;;;;;284.10;32.00;;;7.10;99.90;;;;;;4121743;28;20027;-62
2023/11/05 01:22:09;;;;;;;200.53;25.57;;;7.00;99.90;;;;;;4113250;28;20062;-62
2023/11/05 01:24:10;;;;;;;88.77;21.27;;;7.00;99.90;;;;;;4113788;28;20109;-64
2023/11/05 01:26:11;;;;;;;199.43;30.10;;;7.00;99.90;;;;;;4114584;28;20081;-64
2023/11/05 01:28:13;;;;;;;88.90;24.00;;;7.00;99.90;;;;;;4115568;28;20534;-63
2023/11/05 01:30:14;;;;;;;96.03;26.87;;;7.00;99.90;;;;;;4114492;28;20035;-64
2023/11/05 01:32:15;;;;;;;143.10;27.73;;;7.00;99.90;;;;;;4129331;28;20455;-62
2023/11/05 01:34:16;;;;;;;116.47;24.67;;;7.10;99.90;;;;;;4120500;28;20075;-62
2023/11/05 01:36:17;;;;;;;81.07;21.33;;;7.10;99.90;;;;;;4127392;28;20042;-62
2023/11/05 01:38:18;;;;;;;212.73;26.17;;;7.10;99.90;;;;;;4129780;28;20030;-61
2023/11/05 01:40:20;;;;;;;97.17;20.63;;;7.10;99.90;;;;;;4131109;28;20093;-64
2023/11/05 01:42:21;;;;;;;127.20;23.13;;;7.10;99.90;;;;;;4129724;28;20564;-63
2023/11/05 01:44:22;;;;;;;173.77;26.67;;;7.10;99.90;;;;;;4126822;28;20482;-60
2023/11/05 01:46:25;;;;;;;112.43;22.30;;;7.10;99.90;;;;;;4114019;28;20475;-64
2023/11/05 01:48:28;;;;;;;49.90;16.03;;;7.10;99.90;;;;;;4115102;28;20055;-62
2023/11/05 01:50:29;;;;;;;76.80;17.67;;;7.00;99.90;;;;;;4116774;28;20069;-61
2023/11/05 01:52:30;;;;;;;128.83;19.37;;;7.00;99.90;;;;;;4115877;28;20034;-62
2023/11/05 01:54:31;;;;;;;72.13;17.70;;;7.00;99.90;;;;;;4113695;28;20018;-62
2023/11/05 01:56:35;;;;;;;74.30;16.70;;;6.90;99.90;;;;;;4117584;28;20039;-61
2023/11/05 01:58:37;;;;;;;87.00;18.73;;;6.90;99.90;;;;;;4129918;28;20128;-62
2023/11/05 02:00:39;;;;;;;56.83;17.20;;;6.90;99.90;;;;;;4125006;28;20035;-62
2023/11/05 02:02:41;;;;;;;45.20;14.80;;;6.80;99.90;;;;;;4126474;28;20100;-62
2023/11/05 02:04:43;;;;;;;75.67;16.17;;;6.70;99.90;;;;;;4122436;28;20478;-63
2023/11/05 02:06:45;;;;;;;130.10;17.53;;;6.70;99.90;;;;;;4117412;28;20086;-63
2023/11/05 02:08:47;;;;;;;117.97;18.73;;;6.70;99.90;;;;;;4113493;28;20039;-64
2023/11/05 02:10:48;;;;;;;130.87;18.27;;;6.60;99.90;;;;;;4115210;28;20034;-61
2023/11/05 02:13:07;;;;;;;114.97;16.33;;;6.50;99.90;;;;;;4114619;28;20039;-62
2023/11/05 02:15:09;;;;;;;109.37;15.00;;;6.40;99.90;;;;;;4130160;28;20498;-62
2023/11/05 02:17:10;;;;;;;158.40;17.50;;;6.30;99.90;;;;;;4127759;28;20180;-61
2023/11/05 02:19:12;;;;;;;36.40;12.87;;;6.30;99.90;;;;;;4115373;28;20348;-62
2023/11/05 02:21:27;;;;;;;57.60;14.10;;;6.30;99.90;;;;;;4114484;28;20034;-62
2023/11/05 02:23:28;;;;;;;32.47;15.00;;;6.30;99.90;;;;;;4130252;28;20026;-62
2023/11/05 02:25:29;;;;;;;111.87;20.50;;;6.40;99.90;;;;;;4116401;28;20077;-62
2023/11/05 02:27:30;;;;;;;75.43;20.80;;;6.40;99.90;;;;;;4114298;28;20035;-61
2023/11/05 02:29:32;;;;;;;238.40;25.33;;;6.30;99.90;;;;;;4118384;28;20514;-61
2023/11/05 02:31:33;;;;;;;319.53;31.27;;;6.30;99.90;;;;;;4115820;28;20038;-62
2023/11/05 02:33:41;;;;;;;315.60;28.30;;;6.20;99.90;;;;;;4112902;28;20059;-61
2023/11/05 02:35:42;;;;;;;242.07;27.57;;;6.10;99.90;;;;;;4114151;28;20190;-61
2023/11/05 02:37:43;;;;;;;214.30;26.80;;;6.10;99.90;;;;;;4113074;28;20439;-61
2023/11/05 02:39:44;;;;;;;176.30;24.20;;;6.10;99.90;;;;;;4128379;28;20046;-61
2023/11/05 02:41:46;;;;;;;189.10;23.27;;;6.10;99.90;;;;;;4113299;28;20046;-64
2023/11/05 02:43:47;;;;;;;155.37;23.67;;;6.10;99.90;;;;;;4113489;28;20541;-62
2023/11/05 02:45:48;;;;;;;199.93;23.40;;;6.10;99.90;;;;;;4127331;28;20045;-61
2023/11/05 02:47:49;;;;;;;221.20;23.03;;;6.20;99.90;;;;;;4128984;28;20445;-62
2023/11/05 02:49:51;;;;;;;114.00;17.63;;;6.20;99.90;;;;;;4129497;28;20069;-61
2023/11/05 02:51:52;;;;;;;240.27;24.67;;;6.20;99.90;;;;;;4128782;28;20039;-63
2023/11/05 02:53:54;;;;;;;182.87;19.43;;;6.10;99.90;;;;;;4119790;28;20521;-61
2023/11/05 02:55:55;;;;;;;198.87;21.67;;;6.00;99.90;;;;;;4123012;28;20050;-61
2023/11/05 02:57:56;;;;;;;145.53;19.90;;;6.00;99.90;;;;;;4113957;28;20031;-61
2023/11/05 02:59:57;;;;;;;282.23;21.07;;;6.00;99.90;;;;;;4113712;28;20027;-63
2023/11/05 03:01:59;;;;;;;180.23;18.87;;;6.00;99.90;;;;;;4113871;28;20454;-61
2023/11/05 03:04:01;;;;;;;197.90;19.53;;;5.90;99.90;;;;;;4127072;28;20050;-61
2023/11/05 03:06:02;;;;;;;246.80;22.37;;;5.80;99.90;;;;;;4129630;28;20410;-62
2023/11/05 03:08:03;;;;;;;246.87;19.97;;;5.70;99.90;;;;;;4128320;28;20074;-65
2023/11/05 03:10:06;;;;;;;242.53;18.60;;;5.50;99.90;;;;;;4128000;28;20104;-64
2023/11/05 03:12:07;;;;;;;240.97;22.43;;;5.50;99.90;;;;;;4116598;28;20477;-64
2023/11/05 03:14:08;;;;;;;183.63;17.40;;;5.40;99.90;;;;;;4113155;28;20074;-65
2023/11/05 03:16:11;;;;;;;165.47;17.47;;;5.40;99.90;;;;;;4127441;28;20117;-62
2023/11/05 03:18:13;;;;;;;192.73;19.60;;;5.30;99.90;;;;;;4118600;28;20034;-63
2023/11/05 03:20:14;;;;;;;101.73;14.50;;;5.40;99.90;;;;;;4124075;28;20146;-64
2023/11/05 03:22:15;;;;;;;113.03;15.03;;;5.40;99.90;;;;;;4121781;28;20065;-59
2023/11/05 03:24:16;;;;;;;144.93;16.63;;;5.50;99.90;;;;;;4126302;28;20092;-62
2023/11/05 03:26:17;;;;;;;155.87;18.03;;;5.40;99.90;;;;;;4127970;28;20527;-61
2023/11/05 03:28:18;;;;;;;101.70;15.33;;;5.40;99.90;;;;;;4128693;28;20026;-63
2023/11/05 03:30:20;;;;;;;135.87;17.47;;;5.40;99.90;;;;;;4127789;28;20034;-61
2023/11/05 03:32:21;;;;;;;132.33;17.63;;;5.40;99.90;;;;;;4128680;28;20034;-62
2023/11/05 03:34:22;;;;;;;179.93;17.30;;;5.30;99.90;;;;;;4128315;28;20053;-62
2023/11/05 03:36:24;;;;;;;136.80;15.33;;;5.30;99.90;;;;;;4129888;28;20112;-61
2023/11/05 03:38:25;;;;;;;50.90;12.83;;;5.20;99.90;;;;;;4127774;28;20096;-62
2023/11/05 03:40:26;;;;;;;75.50;14.33;;;5.30;99.90;;;;;;4120498;28;20073;-64
2023/11/05 03:42:27;;;;;;;60.50;16.47;;;5.40;99.90;;;;;;4111937;28;20093;-61
2023/11/05 03:44:28;;;;;;;47.53;17.87;;;5.40;99.90;;;;;;4112544;28;20467;-62
2023/11/05 03:46:29;;;;;;;72.53;20.63;;;5.40;99.90;;;;;;4111899;28;20379;-62
2023/11/05 03:48:31;;;;;;;150.00;24.97;;;5.50;99.90;;;;;;4122669;28;20045;-64
2023/11/05 03:50:33;;;;;;;233.53;33.87;;;5.50;99.90;;;;;;4128486;28;20030;-61
2023/11/05 03:52:34;;;;;;;161.83;27.77;;;5.50;99.90;;;;;;4119221;28;20042;-63
2023/11/05 03:54:35;;;;;;;143.50;28.43;;;5.50;99.90;;;;;;4127239;28;20046;-61
2023/11/05 03:56:37;;;;;;;178.80;28.70;;;5.50;99.90;;;;;;4125868;28;20034;-63
2023/11/05 03:58:39;;;;;;;166.23;27.00;;;5.50;99.90;;;;;;4129013;28;20433;-63
2023/11/05 04:00:40;;;;;;;77.80;18.17;;;5.40;99.90;;;;;;4125492;28;20318;-63
2023/11/05 04:02:41;;;;;;;69.20;15.60;;;5.40;99.90;;;;;;4122277;28;20635;-62
2023/11/05 04:04:46;;;;;;;86.70;22.70;;;5.40;99.90;;;;;;4126111;28;20042;-62
2023/11/05 04:06:48;;;;;;;212.20;31.13;;;5.40;99.90;;;;;;4128621;28;20104;-61
2023/11/05 04:08:49;;;;;;;198.07;27.87;;;5.30;99.90;;;;;;4112350;28;20051;-61
2023/11/05 04:10:50;;;;;;;180.73;23.80;;;5.30;99.90;;;;;;4127528;28;20038;-62
2023/11/05 04:12:52;;;;;;;61.73;16.57;;;5.30;99.90;;;;;;4127429;28;20027;-64
2023/11/05 04:14:53;;;;;;;203.43;30.50;;;5.30;99.90;;;;;;4121091;28;20030;-61
2023/11/05 04:16:54;;;;;;;157.10;25.40;;;5.40;99.90;;;;;;4112339;28;20090;-62
2023/11/05 04:18:57;;;;;;;180.10;28.43;;;5.40;99.90;;;;;;4123782;28;20553;-61
2023/11/05 04:21:00;;;;;;;120.43;23.27;;;5.40;99.90;;;;;;4126412;28;20034;-62
2023/11/05 04:23:01;;;;;;;141.67;18.83;;;5.30;99.90;;;;;;4124885;28;20149;-62
2023/11/05 04:25:02;;;;;;;76.73;15.97;;;5.30;99.90;;;;;;4126762;28;20031;-62
2023/11/05 04:27:03;;;;;;;86.70;15.10;;;5.30;99.90;;;;;;4121077;28;20093;-63
2023/11/05 04:29:04;;;;;;;110.13;15.63;;;5.30;99.90;;;;;;4123421;28;20035;-61
2023/11/05 04:31:06;;;;;;;68.17;12.40;;;5.20;99.90;;;;;;4119554;28;20030;-61
2023/11/05 04:33:07;;;;;;;94.43;13.97;;;5.10;99.90;;;;;;4116436;28;20047;-61
2023/11/05 04:35:08;;;;;;;87.63;12.53;;;5.00;99.90;;;;;;4111605;28;20388;-61
2023/11/05 04:37:10;;;;;;;99.83;13.13;;;4.90;99.90;;;;;;4114353;28;20110;-62
2023/11/05 04:39:12;;;;;;;23.63;8.40;;;4.80;99.90;;;;;;4127377;28;20030;-62
2023/11/05 04:41:20;;;;;;;19.23;8.67;;;4.70;99.90;;;;;;4127347;28;20203;-62
2023/11/05 04:43:21;;;;;;;18.93;9.30;;;4.70;99.90;;;;;;4126998;28;20070;-61
2023/11/05 04:45:22;;;;;;;23.23;8.30;;;4.60;99.90;;;;;;4127942;28;20096;-63
2023/11/05 04:47:24;;;;;;;33.80;10.20;;;4.60;99.90;;;;;;4125750;28;20103;-62
2023/11/05 04:49:27;;;;;;;45.60;10.93;;;4.50;99.90;;;;;;4127850;28;20030;-61
2023/11/05 04:51:29;;;;;;;29.77;9.43;;;4.50;99.90;;;;;;4121695;28;20027;-62
2023/11/05 04:53:31;;;;;;;104.30;14.40;;;4.50;99.90;;;;;;4112678;28;20407;-63
2023/11/05 04:55:32;;;;;;;55.93;12.03;;;4.50;99.90;;;;;;4112948;28;20035;-62
2023/11/05 04:57:33;;;;;;;69.43;13.50;;;4.50;99.90;;;;;;4115053;28;20447;-63
2023/11/05 04:59:34;;;;;;;135.90;16.43;;;4.50;99.90;;;;;;4115531;28;20074;-64
2023/11/05 05:01:36;;;;;;;92.33;13.00;;;4.50;99.90;;;;;;4117613;28;20445;-63
2023/11/05 05:03:37;;;;;;;19.10;8.87;;;4.50;99.90;;;;;;4128983;28;20510;-64
2023/11/05 05:05:40;;;;;;;16.30;9.03;;;4.50;99.90;;;;;;4125292;28;20047;-64
2023/11/05 05:07:41;;;;;;;16.90;9.40;;;4.40;99.90;;;;;;4115441;28;20034;-62
2023/11/05 05:09:42;;;;;;;20.20;10.17;;;4.40;99.90;;;;;;4113070;28;20034;-61
2023/11/05 05:11:44;;;;;;;22.43;10.00;;;4.40;99.90;;;;;;4124332;28;20030;-65
2023/11/05 05:13:45;;;;;;;21.27;11.93;;;4.50;99.90;;;;;;4129873;28;20042;-62
2023/11/05 05:15:46;;;;;;;16.67;10.10;;;4.50;99.90;;;;;;4127994;28;20018;-65
2023/11/05 05:17:47;;;;;;;18.00;9.83;;;4.50;99.90;;;;;;4119350;28;20089;-62
2023/11/05 05:19:48;;;;;;;19.63;9.73;;;4.60;99.90;;;;;;4114584;28;20035;-63
2023/11/05 05:21:49;;;;;;;17.63;10.70;;;4.60;99.90;;;;;;4121991;28;20077;-63
2023/11/05 05:23:50;;;;;;;20.33;10.87;;;4.70;99.90;;;;;;4127302;28;21732;-64
2023/11/05 05:25:51;;;;;;;17.13;10.80;;;4.70;99.90;;;;;;4130456;28;20026;-62
2023/11/05 05:27:53;;;;;;;20.67;11.80;;;4.80;99.90;;;;;;4128454;28;20101;-62
2023/11/05 05:29:54;;;;;;;21.10;11.83;;;4.80;99.90;;;;;;4130801;28;20034;-62
2023/11/05 05:31:55;;;;;;;18.90;10.23;;;4.90;99.90;;;;;;4128287;28;20038;-62
2023/11/05 05:33:56;;;;;;;16.90;9.07;;;5.20;99.90;;;;;;4131264;28;20034;-61
2023/11/05 05:35:57;;;;;;;15.53;9.03;;;5.10;99.90;;;;;;4129803;28;20372;-61
2023/11/05 05:37:58;;;;;;;17.10;9.07;;;5.10;99.90;;;;;;4128978;28;20042;-63
2023/11/05 05:39:59;;;;;;;17.80;10.50;;;5.00;99.90;;;;;;4128457;28;20038;-63
2023/11/05 05:42:03;;;;;;;17.80;9.67;;;5.00;99.90;;;;;;4130959;28;20097;-59
2023/11/05 05:44:05;;;;;;;14.43;8.83;;;5.00;99.90;;;;;;4130095;28;20553;-60
2023/11/05 05:46:06;;;;;;;12.87;7.33;;;5.10;99.90;;;;;;4129286;28;20043;-61
2023/11/05 05:48:07;;;;;;;14.37;8.27;;;5.10;99.90;;;;;;4129216;28;20077;-62
2023/11/05 05:50:09;;;;;;;11.47;6.93;;;5.20;99.90;;;;;;4130492;28;20038;-63
2023/11/05 05:52:10;;;;;;;13.20;7.80;;;5.30;99.90;;;;;;4118479;28;20093;-62
2023/11/05 05:54:11;;;;;;;11.13;7.03;;;5.40;99.90;;;;;;4131847;28;20098;-62
2023/11/05 05:56:12;;;;;;;12.57;7.60;;;5.40;99.90;;;;;;4116094;28;20035;-62
2023/11/05 05:58:15;;;;;;;12.27;8.03;;;5.50;99.90;;;;;;4114935;28;20047;-63
2023/11/05 06:00:17;;;;;;;11.73;7.30;;;5.50;99.90;;;;;;4126318;28;20034;-62
2023/11/05 06:02:18;;;;;;;22.37;8.47;;;5.50;99.90;;;;;;4121912;28;20042;-64
2023/11/05 06:04:19;;;;;;;11.17;6.90;;;5.50;99.90;;;;;;4130209;28;20054;-64
2023/11/05 06:06:20;;;;;;;11.93;6.97;;;5.60;99.90;;;;;;4129616;28;20034;-62
2023/11/05 06:08:22;;;;;;;11.13;7.47;;;5.60;99.90;;;;;;4128109;28;20038;-61
2023/11/05 06:10:23;;;;;;;10.57;7.13;;;5.70;99.90;;;;;;4129463;28;20176;-64
2023/11/05 06:12:24;;;;;;;12.27;7.70;;;5.80;99.90;;;;;;4128968;28;20077;-61
2023/11/05 06:14:26;;;;;;;10.00;5.90;;;5.90;99.90;;;;;;4128767;28;20549;-62
2023/11/05 06:16:27;;;;;;;11.73;7.20;;;6.10;99.90;;;;;;4128726;28;20088;-63
2023/11/05 06:18:28;;;;;;;10.70;7.33;;;6.20;99.90;;;;;;4119052;28;20176;-61
2023/11/05 06:20:29;;;;;;;10.83;7.30;;;6.30;99.90;;;;;;4115069;28;20039;-63
2023/11/05 06:22:31;;;;;;;11.07;7.77;;;6.40;99.90;;;;;;4111853;28;20059;-61
2023/11/05 06:24:32;;;;;;;10.77;6.83;;;6.50;99.90;;;;;;4123054;28;20038;-63
2023/11/05 06:26:33;;;;;;;10.53;6.60;;;6.60;99.90;;;;;;4129498;28;20026;-64
2023/11/05 06:28:34;;;;;;;18.60;11.47;;;6.80;99.90;;;;;;4124675;28;20051;-64
2023/11/05 06:30:35;;;;;;;16.70;10.30;;;7.20;99.90;;;;;;4133003;28;20034;-62
2023/11/05 06:32:38;;;;;;;12.67;8.23;;;7.50;99.90;;;;;;4119191;28;20046;-63
2023/11/05 06:34:39;;;;;;;15.83;8.40;;;7.70;99.90;;;;;;4108360;28;20043;-63
2023/11/05 06:37:06;;;;;;;7.73;4.87;;;7.80;99.90;;;;;;4111607;28;20069;-63
2023/11/05 06:39:09;;;;;;;9.30;6.70;;;8.00;99.90;;;;;;4115765;28;20101;-64
2023/11/05 06:41:10;;;;;;;16.30;9.10;;;8.20;99.90;;;;;;4118151;28;20391;-63
2023/11/05 06:43:12;;;;;;;10.47;6.10;;;8.30;99.90;;;;;;4119559;28;20094;-64
2023/11/05 06:45:13;;;;;;;9.67;5.47;;;8.40;99.90;;;;;;4111954;28;20050;-63
2023/11/05 06:47:14;;;;;;;5.50;3.57;;;8.50;99.90;;;;;;4117685;28;20058;-63
2023/11/05 06:49:16;;;;;;;4.30;3.50;;;8.70;99.90;;;;;;4112039;28;20087;-62
2023/11/05 06:51:17;;;;;;;6.10;2.73;;;9.00;99.90;;;;;;4116712;28;20034;-62
2023/11/05 06:53:18;;;;;;;3.77;1.60;;;9.20;99.90;;;;;;4126292;28;20042;-61
2023/11/05 06:55:19;;;;;;;1.90;1.70;;;9.50;99.90;;;;;;4128707;28;20105;-62
2023/11/05 06:57:20;;;;;;;3.87;2.03;;;9.80;99.90;;;;;;4112980;28;20051;-63
2023/11/05 06:59:21;;;;;;;4.03;2.07;;;10.00;99.90;;;;;;4113527;28;20038;-62
2023/11/05 07:01:22;;;;;;;3.17;1.93;;;10.20;99.90;;;;;;4119125;28;20096;-62
2023/11/05 07:03:23;;;;;;;4.13;1.47;;;10.40;99.90;;;;;;4122164;28;20454;-64
2023/11/05 07:05:24;;;;;;;2.87;1.47;;;10.60;99.90;;;;;;4127933;28;20098;-62
2023/11/05 07:07:26;;;;;;;2.20;1.50;;;10.80;99.90;;;;;;4127345;28;20042;-63
2023/11/05 07:09:27;;;;;;;2.40;1.37;;;10.80;99.90;;;;;;4107093;28;20038;-65
2023/11/05 07:11:30;;;;;;;1.30;0.90;;;10.90;99.90;;;;;;4123901;28;20344;-64
2023/11/05 07:13:31;;;;;;;2.50;1.40;;;11.00;99.90;;;;;;4112343;28;20027;-64
2023/11/05 07:15:32;;;;;;;3.77;2.00;;;11.10;99.90;;;;;;4109209;28;20177;-65
2023/11/05 07:17:33;;;;;;;2.13;1.77;;;11.10;99.90;;;;;;4096961;28;20038;-65
2023/11/05 07:19:34;;;;;;;4.07;2.00;;;11.10;99.90;;;;;;4108081;28;20450;-64
2023/11/05 07:21:35;;;;;;;2.70;1.40;;;11.10;99.90;;;;;;4111734;28;20035;-64
2023/11/05 07:23:36;;;;;;;4.00;1.33;;;11.00;99.90;;;;;;4111498;28;20095;-65
2023/11/05 07:25:38;;;;;;;1.33;1.23;;;11.10;99.90;;;;;;4112707;28;20073;-65
2023/11/05 07:27:39;;;;;;;2.20;1.13;;;11.10;99.90;;;;;;4110982;28;20495;-64
2023/11/05 07:29:44;;;;;;;2.47;1.73;;;11.20;99.90;;;;;;4112060;28;20066;-65
2023/11/05 07:31:46;;;;;;;2.53;1.70;;;11.30;99.90;;;;;;4111401;28;20031;-63
2023/11/05 07:33:50;;;;;;;2.50;2.10;;;11.20;99.90;;;;;;4111836;28;20043;-63
2023/11/05 07:35:51;;;;;;;4.20;2.33;;;11.20;99.90;;;;;;4111693;28;20093;-63
2023/11/05 07:37:54;;;;;;;4.50;2.40;;;11.20;99.90;;;;;;4111644;28;20039;-64
2023/11/05 07:39:56;;;;;;;4.07;2.23;;;11.40;99.90;;;;;;4111948;28;20039;-63
2023/11/05 07:41:57;;;;;;;6.13;2.07;;;11.80;99.90;;;;;;4112256;28;20433;-63
2023/11/05 07:43:59;;;;;;;3.33;1.87;;;12.10;99.90;;;;;;4112630;28;20070;-63
2023/11/05 07:46:00;;;;;;;3.07;2.23;;;12.20;99.90;;;;;;4112100;28;20538;-63
2023/11/05 07:48:02;;;;;;;3.47;2.10;;;12.30;99.90;;;;;;4113209;28;20185;-62
2023/11/05 07:50:03;;;;;;;3.80;1.80;;;12.40;99.90;;;;;;4096228;28;20487;-62
2023/11/05 07:52:05;;;;;;;4.13;2.00;;;12.50;99.90;;;;;;4111537;28;20466;-62
2023/11/05 07:54:07;;;;;;;7.30;1.77;;;12.80;99.90;;;;;;4095594;28;20047;-62
2023/11/05 07:56:11;;;;;;;3.27;1.80;;;13.20;99.90;;;;;;4100413;28;20121;-62
2023/11/05 07:58:12;;;;;;;2.37;0.97;;;13.50;99.90;;;;;;4113143;28;20105;-62
2023/11/05 08:00:17;;;;;;;1.33;0.90;;;13.70;99.90;;;;;;4115290;28;20435;-63
2023/11/05 08:02:18;;;;;;;1.30;0.90;;;13.70;99.90;;;;;;4114794;28;20109;-63
2023/11/05 08:04:20;;;;;;;1.90;1.40;;;13.60;99.90;;;;;;4112442;28;20054;-66
2023/11/05 08:06:22;;;;;;;1.17;0.80;;;13.60;99.90;;;;;;4112842;28;20030;-62
2023/11/05 08:08:23;;;;;;;1.40;0.73;;;13.70;99.90;;;;;;4112424;28;20043;-61
2023/11/05 08:10:24;;;;;;;2.97;0.80;;;13.80;99.90;;;;;;4116487;28;20069;-64
2023/11/05 08:12:25;;;;;;;2.47;0.70;;;13.70;99.90;;;;;;4122116;28;20059;-63
2023/11/05 08:14:26;;;;;;;4.43;1.38;;;13.70;99.90;;;;;;4113422;28;20089;-64
2023/11/05 08:16:27;;;;;;;1.35;1.08;;;13.60;99.90;;;;;;4107500;28;20023;-63
2023/11/05 08:18:29;;;;;;;1.05;0.63;;;13.60;99.90;;;;;;4116424;28;20095;-62
2023/11/05 08:20:30;;;;;;;2.40;0.60;;;13.50;99.90;;;;;;4113301;28;20030;-62
2023/11/05 08:22:32;;;;;;;1.25;0.80;;;13.40;99.90;;;;;;4125219;28;20026;-62
2023/11/05 08:24:34;;;;;;;1.10;1.00;;;13.30;99.90;;;;;;4125744;28;20121;-65
2023/11/05 08:26:35;;;;;;;2.53;0.75;;;13.30;99.90;;;;;;4128398;28;20069;-65
2023/11/05 08:28:37;;;;;;;0.77;0.63;;;13.20;99.90;;;;;;4122107;28;20096;-65
2023/11/05 08:30:38;;;;;;;0.80;0.80;;;13.20;99.90;;;;;;4122460;28;20085;-65
2023/11/05 08:32:39;;;;;;;0.93;0.70;;;13.20;99.90;;;;;;4114082;28;20034;-63
2023/11/05 08:34:41;;;;;;;1.23;0.68;;;13.20;99.90;;;;;;4117583;28;20119;-63
2023/11/05 08:36:42;;;;;;;0.80;0.80;;;13.20;99.90;;;;;;4127684;28;20046;-63
2023/11/05 08:38:43;;;;;;;1.67;1.20;;;13.10;99.90;;;;;;4124725;28;20382;-66
2023/11/05 08:40:45;;;;;;;1.93;0.97;;;13.00;99.90;;;;;;4115528;28;20035;-64
2023/11/05 08:42:47;;;;;;;0.90;0.57;;;12.90;99.90;;;;;;4115325;28;20415;-62
2023/11/05 08:44:48;;;;;;;3.23;0.90;;;12.80;99.90;;;;;;4116554;28;20113;-63
2023/11/05 08:46:49;;;;;;;2.50;0.90;;;12.70;99.90;;;;;;4114348;28;20415;-61
2023/11/05 08:48:51;;;;;;;4.17;1.07;;;12.60;99.90;;;;;;4117827;28;20034;-62
2023/11/05 08:50:52;;;;;;;2.17;0.80;;;12.60;99.90;;;;;;4114535;28;20031;-62
2023/11/05 08:52:53;;;;;;;0.80;0.80;;;12.40;99.90;;;;;;4115314;28;20034;-60
2023/11/05 08:54:54;;;;;;;2.07;1.10;;;12.30;99.90;;;;;;4121001;28;20394;-60
2023/11/05 08:56:55;;;;;;;1.20;1.10;;;12.10;99.90;;;;;;4131346;28;20478;-59
2023/11/05 08:58:56;;;;;;;1.23;0.80;;;12.00;99.90;;;;;;4115918;28;20109;-61
2023/11/05 09:00:59;;;;;;;3.10;1.10;;;11.90;99.90;;;;;;4116563;28;20050;-61
2023/11/05 09:03:00;;;;;;;1.70;1.13;;;11.80;99.90;;;;;;4114140;28;20082;-59
2023/11/05 09:05:01;;;;;;;1.77;1.00;;;11.70;99.90;;;;;;4115974;28;20132;-61
2023/11/05 09:07:03;;;;;;;2.00;1.00;;;11.70;99.90;;;;;;4114096;28;20023;-62
2023/11/05 09:09:05;;;;;;;1.30;1.20;;;11.60;99.90;;;;;;4114741;28;20085;-63
2023/11/05 09:11:08;;;;;;;2.90;1.20;;;11.60;99.90;;;;;;4114552;28;20443;-61
2023/11/05 09:13:09;;;;;;;2.07;1.00;;;11.50;99.90;;;;;;4113468;28;20502;-64
2023/11/05 09:15:11;;;;;;;3.17;1.53;;;11.50;99.90;;;;;;4114576;28;20039;-62
2023/11/05 09:17:12;;;;;;;2.23;1.13;;;11.40;99.90;;;;;;4114111;28;20082;-61
2023/11/05 09:19:13;;;;;;;1.97;1.60;;;11.30;99.90;;;;;;4114896;28;20027;-61
2023/11/05 09:21:14;;;;;;;2.60;1.30;;;11.30;99.90;;;;;;4114974;28;20101;-63
2023/11/05 09:23:16;;;;;;;1.93;1.27;;;11.30;99.90;;;;;;4114909;28;20090;-61
2023/11/05 09:25:18;;;;;;;4.60;1.10;;;11.20;99.90;;;;;;4114156;28;20419;-61
2023/11/05 09:27:19;;;;;;;5.03;1.53;;;11.20;99.90;;;;;;4114889;28;20089;-60
2023/11/05 09:29:20;;;;;;;2.83;1.90;;;11.10;99.90;;;;;;4112633;28;20513;-63
2023/11/05 09:31:21;;;;;;;2.33;1.37;;;11.00;99.90;;;;;;4114817;28;20081;-63
2023/11/05 09:33:22;;;;;;;1.20;1.10;;;11.00;99.90;;;;;;4113516;28;20487;-62
2023/11/05 09:35:25;;;;;;;5.40;1.57;;;11.00;99.90;;;;;;4115093;28;20478;-62
2023/11/05 09:37:28;;;;;;;2.70;1.83;;;10.90;99.90;;;;;;4113702;28;20039;-64
2023/11/05 09:39:29;;;;;;;2.20;1.47;;;10.90;99.90;;;;;;4113870;28;20537;-61
2023/11/05 09:41:33;;;;;;;2.27;1.57;;;10.90;99.90;;;;;;4112269;28;20031;-63
2023/11/05 09:43:34;;;;;;;1.73;1.60;;;10.90;99.90;;;;;;4116357;28;20074;-61
2023/11/05 09:45:37;;;;;;;2.17;1.77;;;10.80;99.90;;;;;;4130252;28;20073;-62
2023/11/05 09:47:40;;;;;;;3.73;2.10;;;10.90;99.90;;;;;;4129708;28;20396;-59
2023/11/05 09:49:42;;;;;;;3.03;1.83;;;10.90;99.90;;;;;;4130583;28;20445;-62
2023/11/05 09:51:48;;;;;;;2.60;1.97;;;10.90;99.90;;;;;;4129229;28;20086;-62
2023/11/05 09:53:49;;;;;;;5.20;2.10;;;10.90;99.90;;;;;;4130366;28;20081;-59
2023/11/05 09:55:50;;;;;;;3.57;1.97;;;10.90;99.90;;;;;;4129201;28;20038;-59
2023/11/05 09:57:51;;;;;;;2.67;1.97;;;11.00;99.90;;;;;;4129605;28;20047;-62
2023/11/05 09:59:53;;;;;;;2.17;1.97;;;11.10;99.90;;;;;;4118713;28;20122;-60
2023/11/05 10:01:54;;;;;;;2.07;1.90;;;11.10;99.90;;;;;;4114274;28;20442;-61
2023/11/05 10:03:56;;;;;;;3.87;2.23;;;11.10;99.90;;;;;;4112815;28;20473;-60
2023/11/05 10:05:57;;;;;;;3.33;2.00;;;11.10;99.90;;;;;;4117302;28;20046;-61
2023/11/05 10:07:59;;;;;;;6.97;2.20;;;11.20;99.90;;;;;;4113016;28;20581;-62
2023/11/05 10:10:00;;;;;;;3.87;2.20;;;11.20;99.90;;;;;;4118566;28;20174;-61
2023/11/05 10:12:03;;;;;;;3.17;2.00;;;11.20;99.90;;;;;;4128969;28;20018;-61
2023/11/05 10:14:04;;;;;;;2.70;1.70;;;11.20;99.90;;;;;;4129833;28;20178;-61
2023/11/05 10:16:06;;;;;;;3.13;1.77;;;11.20;99.90;;;;;;4124565;28;20035;-61
2023/11/05 10:18:13;;;;;;;3.23;1.97;;;11.20;99.90;;;;;;4129222;28;20106;-60
2023/11/05 10:20:14;;;;;;;2.67;1.80;;;11.30;99.90;;;;;;4124232;28;20084;-62
2023/11/05 10:22:15;;;;;;;2.30;1.93;;;11.20;99.90;;;;;;4129290;28;20799;-61
2023/11/05 10:24:16;;;;;;;3.40;2.23;;;11.30;99.90;;;;;;4129537;28;20453;-63
2023/11/05 10:26:30;;;;;;;4.13;1.87;;;11.30;99.90;;;;;;4128948;28;20046;-61
2023/11/05 10:28:32;;;;;;;1.77;1.30;;;11.30;99.90;;;;;;4129691;28;20033;-60